createdAt,value
2023-05-07T04:55:05.600Z,3.75
2023-05-07T06:43:10.487Z,3.67
2023-05-07T06:45:15.852Z,3.08
2023-05-07T06:46:17.303Z,2.80
2023-05-07T06:48:35.651Z,3.35
2023-05-07T06:49:37.154Z,3.15
2023-05-07T06:50:38.535Z,2.60
2023-05-07T06:51:40.036Z,2.72
2023-05-07T06:52:41.452Z,2.85
2023-05-07T06:53:42.831Z,2.95
2023-05-07T06:54:44.176Z,3.63
2023-05-07T06:55:45.577Z,2.97
2023-05-07T06:56:46.956Z,2.47
2023-05-07T06:57:48.451Z,2.80
2023-05-07T06:58:50.059Z,2.40
2023-05-07T06:59:51.463Z,2.88
2023-05-07T07:00:52.813Z,2.83
2023-05-07T07:01:54.309Z,2.75
2023-05-07T07:02:56.578Z,2.50
2023-05-07T07:03:58.162Z,2.90
2023-05-07T07:04:59.523Z,2.30
2023-05-07T07:06:03.221Z,2.40
2023-05-07T07:07:04.623Z,2.70
2023-05-07T07:08:06.124Z,2.40
2023-05-07T07:09:07.613Z,2.97
2023-05-07T07:10:09.662Z,2.83
2023-05-07T07:11:11.520Z,3.35
2023-05-07T07:12:12.887Z,2.63
2023-05-07T07:13:14.911Z,2.35
2023-05-07T07:14:16.439Z,2.83
2023-05-07T07:15:17.836Z,2.80
2023-05-07T07:16:19.400Z,2.20
2023-05-07T07:17:20.830Z,2.30
2023-05-07T07:18:22.255Z,2.40
2023-05-07T07:19:23.751Z,2.50
2023-05-07T07:20:25.383Z,3.20
2023-05-07T07:21:26.941Z,2.72
2023-05-07T07:22:28.327Z,2.30
2023-05-07T07:23:29.661Z,2.92
2023-05-07T07:24:30.999Z,2.47
2023-05-07T07:25:32.863Z,2.63
2023-05-07T07:26:34.303Z,3.45
2023-05-07T07:27:35.920Z,3.15
2023-05-07T07:28:45.161Z,2.70
2023-05-07T07:29:46.845Z,4.03
2023-05-07T07:30:48.390Z,3.45
2023-05-07T07:33:03.555Z,3.40
2023-05-07T07:41:08.599Z,4.03
2023-05-07T07:43:10.055Z,3.08
2023-05-07T07:44:15.658Z,3.08
2023-05-07T07:46:25.101Z,3.30
2023-05-07T07:47:26.684Z,4.53
2023-05-07T07:48:28.094Z,3.70
2023-05-07T07:49:29.580Z,3.28
2023-05-07T07:50:43.451Z,3.30
2023-05-07T07:51:46.903Z,3.30
2023-05-07T07:52:49.284Z,3.63
2023-05-07T07:53:50.767Z,2.95
2023-05-07T07:54:52.100Z,2.90
2023-05-07T07:55:58.019Z,3.88
2023-05-07T07:57:00.749Z,3.15
2023-05-07T07:58:02.120Z,3.17
2023-05-07T07:59:03.507Z,3.60
2023-05-07T08:00:07.202Z,4.53
2023-05-07T08:01:08.542Z,2.92
2023-05-07T08:02:10.160Z,3.53
2023-05-07T08:03:12.071Z,2.65
2023-05-07T08:04:13.793Z,3.70
2023-05-07T08:05:16.306Z,3.90
2023-05-07T08:07:16.107Z,3.38
2023-05-07T08:08:17.528Z,3.80
2023-05-07T08:09:19.019Z,3.33
2023-05-07T08:11:22.814Z,3.15
2023-05-07T08:12:24.476Z,3.55
2023-05-07T08:13:26.087Z,3.22
2023-05-07T08:14:29.227Z,3.55
2023-05-07T08:15:31.238Z,3.22
2023-05-07T08:16:32.866Z,2.80
2023-05-07T08:17:34.442Z,2.70
2023-05-07T08:18:35.834Z,2.88
2023-05-07T08:19:37.497Z,2.80
2023-05-07T08:20:40.508Z,3.47
2023-05-07T08:21:41.976Z,3.45
2023-05-07T08:22:43.381Z,3.17
2023-05-07T08:23:44.840Z,3.33
2023-05-07T08:24:46.358Z,3.17
2023-05-07T08:25:47.784Z,4.18
2023-05-07T08:26:49.197Z,3.20
2023-05-07T08:27:50.689Z,3.50
2023-05-07T08:28:52.154Z,2.90
2023-05-07T08:29:54.232Z,2.53
2023-05-07T08:30:57.571Z,3.42
2023-05-07T08:31:59.040Z,3.42
2023-05-07T08:33:01.563Z,2.50
2023-05-07T08:34:04.630Z,3.05
2023-05-07T08:35:06.460Z,2.53
2023-05-07T08:36:08.082Z,3.45
2023-05-07T08:37:09.516Z,3.50
2023-05-07T08:38:10.966Z,2.60
2023-05-07T08:39:12.353Z,2.88
2023-05-07T08:40:14.673Z,2.30
2023-05-07T08:41:16.764Z,2.47
2023-05-07T08:42:19.023Z,2.53
2023-05-07T08:43:20.858Z,2.30
2023-05-07T08:44:23.901Z,2.30
2023-05-07T08:45:26.473Z,2.42
2023-05-07T08:46:32.635Z,2.88
2023-05-07T08:47:43.380Z,2.92
2023-05-07T08:48:45.532Z,2.33
2023-05-07T08:49:47.489Z,2.85
2023-05-07T08:50:48.961Z,2.55
2023-05-07T08:51:50.761Z,2.20
2023-05-07T08:52:52.258Z,2.50
2023-05-07T08:53:53.648Z,2.03
2023-05-07T08:54:55.029Z,2.80
2023-05-07T08:55:57.232Z,2.13
2023-05-07T08:56:58.797Z,2.38
2023-05-07T08:58:01.736Z,2.00
2023-05-07T08:59:04.747Z,2.17
2023-05-07T09:00:08.159Z,2.22
2023-05-07T09:01:17.289Z,2.55
2023-05-07T09:02:19.326Z,1.80
2023-05-07T09:03:21.008Z,2.10
2023-05-07T09:04:22.548Z,1.95
2023-05-07T09:05:23.934Z,2.10
2023-05-07T09:06:25.744Z,2.00
2023-05-07T09:07:27.930Z,2.63
2023-05-07T09:08:30.340Z,2.20
2023-05-07T09:09:34.540Z,2.92
2023-05-07T09:10:35.933Z,2.40
2023-05-07T09:11:37.273Z,2.35
2023-05-07T09:12:40.152Z,1.83
2023-05-07T09:13:41.565Z,2.05
2023-05-07T09:14:43.013Z,2.40
2023-05-07T09:15:44.572Z,2.25
2023-05-07T09:16:47.493Z,3.60
2023-05-07T09:17:49.085Z,2.80
2023-05-07T09:18:54.689Z,2.03
2023-05-07T09:19:56.343Z,2.03
2023-05-07T09:20:57.695Z,2.35
2023-05-07T09:22:04.293Z,1.85
2023-05-07T09:23:07.757Z,2.35
2023-05-07T09:24:09.232Z,1.92
2023-05-07T09:25:11.095Z,2.75
2023-05-07T09:26:13.051Z,2.25
2023-05-07T09:27:14.647Z,2.00
2023-05-07T09:28:16.015Z,2.15
2023-05-07T09:29:18.409Z,1.92
2023-05-07T09:30:19.853Z,1.80
2023-05-07T09:31:21.860Z,2.10
2023-05-07T09:32:23.583Z,2.25
2023-05-07T09:33:28.629Z,2.30
2023-05-07T09:34:31.427Z,1.80
2023-05-07T09:35:32.857Z,1.90
2023-05-07T09:36:34.399Z,2.22
2023-05-07T09:37:37.166Z,2.50
2023-05-07T09:38:39.471Z,2.08
2023-05-07T09:39:48.338Z,2.22
2023-05-07T09:41:04.016Z,2.20
2023-05-07T09:42:05.706Z,2.50
2023-05-07T09:43:12.508Z,2.65
2023-05-07T09:44:15.412Z,1.90
2023-05-07T09:45:27.311Z,2.08
2023-05-07T09:46:31.791Z,1.70
2023-05-07T09:47:33.610Z,2.00
2023-05-07T09:48:40.139Z,1.90
2023-05-07T09:49:45.964Z,1.63
2023-05-07T09:50:55.823Z,2.28
2023-05-07T09:51:58.750Z,2.30
2023-05-07T09:53:00.609Z,2.15
2023-05-07T09:54:04.429Z,2.35
2023-05-07T09:55:07.113Z,2.15
2023-05-07T09:56:08.757Z,1.70
2023-05-07T09:57:12.813Z,2.22
2023-05-07T09:58:17.349Z,2.42
2023-05-07T09:59:21.442Z,2.25
2023-05-07T10:00:24.006Z,2.13
2023-05-07T10:01:26.751Z,2.13
2023-05-07T10:02:31.738Z,2.28
2023-05-07T10:03:36.345Z,2.00
2023-05-07T10:04:38.056Z,1.70
2023-05-07T10:05:40.210Z,2.17
2023-05-07T10:06:42.811Z,2.20
2023-05-07T10:07:45.417Z,2.22
2023-05-07T10:08:47.801Z,2.15
2023-05-07T10:09:49.437Z,2.10
2023-05-07T10:10:51.190Z,2.25
2023-05-07T10:11:53.742Z,2.22
2023-05-07T10:12:55.958Z,2.20
2023-05-07T10:13:57.827Z,2.10
2023-05-07T10:14:59.261Z,1.85
2023-05-07T10:16:00.968Z,1.98
2023-05-07T10:17:03.565Z,2.10
2023-05-07T10:18:07.278Z,2.13
2023-05-07T10:19:13.303Z,1.45
2023-05-07T10:20:14.771Z,2.20
2023-05-07T10:21:21.000Z,1.95
2023-05-07T10:22:23.524Z,2.05
2023-05-07T10:23:26.450Z,2.00
2023-05-07T10:24:33.665Z,2.05
2023-05-07T10:25:35.445Z,2.20
2023-05-07T10:26:37.939Z,1.65
2023-05-07T10:27:40.102Z,2.08
2023-05-07T10:28:45.793Z,1.95
2023-05-07T10:30:22.763Z,1.90
2023-05-07T10:31:59.494Z,2.83
2023-05-07T10:33:07.193Z,1.88
2023-05-07T10:34:13.253Z,2.30
2023-05-07T10:35:26.971Z,2.03
2023-05-07T10:36:28.887Z,2.08
2023-05-07T10:37:31.056Z,2.00
2023-05-07T10:38:32.585Z,2.00
2023-05-07T10:39:34.027Z,1.95
2023-05-07T10:40:35.838Z,1.55
2023-05-07T10:41:37.983Z,1.80
2023-05-07T10:42:39.521Z,2.05
2023-05-07T10:43:43.040Z,2.35
2023-05-07T10:44:44.687Z,2.17
2023-05-07T10:46:18.942Z,2.40
2023-05-07T10:47:20.459Z,3.28
2023-05-07T10:48:30.352Z,2.85
2023-05-07T10:49:32.232Z,2.70
2023-05-07T10:50:34.017Z,2.55
2023-05-07T10:51:36.370Z,2.70
2023-05-07T10:52:38.072Z,2.58
2023-05-07T10:53:39.587Z,3.00
2023-05-07T10:54:41.217Z,2.60
2023-05-07T10:55:42.608Z,2.40
2023-05-07T10:56:44.588Z,2.95
2023-05-07T10:57:45.930Z,2.85
2023-05-07T10:58:47.558Z,2.83
2023-05-07T10:59:48.981Z,3.13
2023-05-07T11:00:50.798Z,3.47
2023-05-07T11:01:54.210Z,3.63
2023-05-07T11:03:01.519Z,4.07
2023-05-07T12:25:21.020Z,4.35
2023-05-07T12:27:55.114Z,3.85
2023-05-07T12:30:39.480Z,2.97
